createdAt,value
2018-11-23T00:02:10.124Z,128.77
2018-11-23T00:04:39.775Z,130.43
2018-11-23T00:07:09.516Z,124.20
2018-11-23T00:09:38.817Z,124.53
2018-11-23T00:12:08.166Z,111.47
2018-11-23T00:14:37.431Z,128.90
2018-11-23T00:17:06.936Z,124.67
2018-11-23T00:19:36.150Z,129.07
2018-11-23T00:22:05.521Z,123.03
2018-11-23T00:24:35.184Z,140.67
2018-11-23T00:27:04.435Z,138.17
2018-11-23T00:29:33.683Z,126.83
2018-11-23T00:32:03.494Z,144.50
2018-11-23T00:34:32.880Z,133.13
2018-11-23T00:37:02.372Z,135.63
2018-11-23T00:39:31.700Z,129.53
2018-11-23T00:42:01.052Z,111.60
2018-11-23T00:44:30.474Z,136.07
2018-11-23T00:47:00.689Z,141.00
2018-11-23T00:49:30.061Z,130.53
2018-11-23T00:51:59.433Z,127.00
2018-11-23T00:54:28.800Z,128.53
2018-11-23T00:56:58.090Z,133.83
2018-11-23T00:59:27.299Z,137.97
2018-11-23T01:02:01.958Z,135.03
2018-11-23T01:04:31.997Z,126.70
2018-11-23T01:07:02.040Z,124.97
2018-11-23T01:09:31.457Z,124.43
2018-11-23T01:12:01.500Z,139.53
2018-11-23T01:14:31.812Z,137.87
2018-11-23T01:17:01.143Z,131.53
2018-11-23T01:19:30.595Z,146.50
2018-11-23T01:22:02.522Z,138.67
2018-11-23T01:24:31.783Z,139.63
2018-11-23T01:27:01.883Z,138.03
2018-11-23T01:29:31.230Z,127.23
2018-11-23T01:32:00.488Z,130.53
2018-11-23T01:34:29.814Z,138.50
2018-11-23T01:36:59.294Z,123.77
2018-11-23T01:39:28.543Z,130.27
2018-11-23T01:41:58.858Z,106.70
2018-11-23T01:44:28.168Z,137.13
2018-11-23T01:46:57.659Z,135.27
2018-11-23T01:49:27.092Z,144.50
2018-11-23T01:51:56.377Z,126.90
2018-11-23T01:54:26.103Z,132.30
2018-11-23T01:56:55.371Z,138.27
2018-11-23T01:59:24.764Z,124.13
2018-11-23T02:01:54.157Z,127.40
2018-11-23T02:04:23.795Z,136.00
2018-11-23T02:06:53.314Z,141.97
2018-11-23T02:09:23.001Z,141.73
2018-11-23T02:11:52.248Z,140.47
2018-11-23T02:14:21.724Z,124.97
2018-11-23T02:16:52.189Z,120.03
2018-11-23T02:19:21.478Z,130.47
2018-11-23T02:21:52.496Z,128.87
2018-11-23T02:24:21.837Z,137.73
2018-11-23T02:26:52.147Z,121.13
2018-11-23T02:29:22.167Z,119.47
2018-11-23T02:31:51.958Z,118.93
2018-11-23T02:34:21.382Z,134.57
2018-11-23T02:36:51.334Z,136.60
2018-11-23T02:39:20.644Z,135.97
2018-11-23T02:41:50.130Z,129.77
2018-11-23T02:44:19.401Z,134.33
2018-11-23T02:46:49.925Z,130.83
2018-11-23T02:49:19.488Z,126.83
2018-11-23T02:51:48.829Z,137.33
2018-11-23T02:54:18.174Z,123.87
2018-11-23T02:56:47.936Z,126.47
2018-11-23T02:59:17.316Z,120.37
2018-11-23T03:01:46.632Z,128.80
2018-11-23T03:04:15.876Z,129.43
2018-11-23T03:06:45.082Z,123.90
2018-11-23T03:09:14.771Z,128.23
2018-11-23T03:11:44.104Z,127.63
2018-11-23T03:14:13.481Z,118.23
2018-11-23T03:16:43.237Z,113.90
2018-11-23T03:19:12.781Z,119.87
2018-11-23T03:21:42.804Z,121.70
2018-11-23T03:24:12.584Z,110.13
2018-11-23T03:26:43.676Z,122.83
2018-11-23T03:29:13.701Z,114.03
2018-11-23T03:31:43.035Z,121.27
2018-11-23T03:34:13.546Z,109.60
2018-11-23T03:36:42.829Z,116.10
2018-11-23T03:39:12.104Z,100.43
2018-11-23T03:41:41.353Z,123.37
2018-11-23T03:44:10.689Z,106.13
2018-11-23T03:46:40.076Z,112.73
2018-11-23T03:49:10.092Z,110.53
2018-11-23T03:51:40.109Z,109.20
2018-11-23T03:54:09.370Z,106.87
2018-11-23T03:56:38.585Z,106.10
2018-11-23T03:59:08.799Z,112.00
2018-11-23T04:01:38.914Z,104.57
2018-11-23T04:04:08.276Z,102.03
2018-11-23T04:06:37.556Z,102.90
2018-11-23T04:09:08.666Z,117.90
2018-11-23T04:11:38.220Z,92.80
2018-11-23T04:14:07.616Z,101.20
2018-11-23T04:16:36.831Z,102.90
2018-11-23T04:19:06.137Z,114.47
2018-11-23T04:21:35.774Z,101.53
2018-11-23T04:24:05.474Z,102.27
2018-11-23T04:26:34.665Z,108.57
2018-11-23T04:29:03.852Z,104.37
2018-11-23T04:31:33.426Z,104.03
2018-11-23T04:34:02.874Z,117.80
2018-11-23T04:36:32.206Z,104.30
2018-11-23T04:39:01.575Z,104.73
2018-11-23T04:41:30.843Z,108.80
2018-11-23T04:44:00.714Z,93.50
2018-11-23T04:46:30.133Z,105.73
2018-11-23T04:48:59.554Z,114.33
2018-11-23T04:51:29.781Z,111.50
2018-11-23T04:53:59.284Z,103.57
2018-11-23T04:56:30.286Z,107.10
2018-11-23T04:59:00.525Z,105.60
2018-11-23T05:01:29.819Z,110.30
2018-11-23T05:04:03.047Z,109.10
2018-11-23T05:06:32.343Z,104.50
2018-11-23T05:09:01.706Z,111.50
2018-11-23T05:11:31.476Z,122.30
2018-11-23T05:14:02.618Z,116.43
2018-11-23T05:16:33.173Z,111.23
2018-11-23T05:19:02.693Z,112.57
2018-11-23T05:21:33.687Z,115.43
2018-11-23T05:24:04.005Z,114.43
2018-11-23T05:26:33.592Z,103.07
2018-11-23T05:29:02.797Z,111.83
2018-11-23T05:31:33.140Z,101.13
2018-11-23T05:34:02.639Z,96.83
2018-11-23T05:36:31.875Z,88.80
2018-11-23T05:39:01.238Z,95.57
2018-11-23T05:41:30.538Z,104.90
2018-11-23T05:43:59.987Z,97.87
2018-11-23T05:46:29.719Z,97.87
2018-11-23T05:49:05.774Z,99.60
2018-11-23T05:51:36.031Z,91.70
2018-11-23T05:54:07.348Z,86.33
2018-11-23T05:56:36.970Z,93.80
2018-11-23T05:59:06.665Z,97.67
2018-11-23T06:01:37.069Z,85.57
2018-11-23T06:04:07.439Z,99.10
2018-11-23T06:06:42.481Z,89.63
2018-11-23T06:09:09.124Z,89.53
2018-11-23T06:11:38.432Z,85.90
2018-11-23T06:14:10.700Z,91.57
2018-11-23T06:16:40.121Z,95.00
2018-11-23T06:19:18.981Z,88.80
2018-11-23T06:21:48.335Z,76.83
2018-11-23T06:24:19.498Z,79.27
2018-11-23T06:26:48.682Z,83.70
2018-11-23T06:29:18.028Z,82.13
2018-11-23T06:31:48.577Z,73.20
2018-11-23T06:34:18.523Z,79.20
2018-11-23T06:40:05.172Z,79.30
2018-11-23T06:42:42.238Z,79.07
2018-11-23T06:45:12.864Z,76.70
2018-11-23T06:47:42.201Z,79.77
2018-11-23T06:50:13.396Z,81.27
2018-11-23T06:52:49.997Z,92.43
2018-11-23T06:55:19.259Z,84.50
2018-11-23T06:57:48.643Z,84.87
2018-11-23T07:00:17.971Z,83.40
2018-11-23T07:02:47.349Z,78.00
2018-11-23T07:05:16.580Z,81.57
2018-11-23T07:07:45.994Z,75.03
2018-11-23T07:10:15.352Z,85.37
2018-11-23T07:12:45.269Z,74.63
2018-11-23T07:15:14.821Z,76.77
2018-11-23T07:17:51.331Z,76.40
2018-11-23T07:20:27.963Z,71.70
2018-11-23T07:23:06.650Z,81.43
2018-11-23T07:25:53.338Z,72.53
2018-11-23T07:28:39.539Z,77.50
2018-11-23T07:31:35.026Z,70.83
2018-11-23T07:34:19.945Z,73.10
2018-11-23T07:36:59.508Z,77.63
2018-11-23T07:39:44.330Z,78.87
2018-11-23T07:42:30.053Z,77.17
2018-11-23T07:45:08.409Z,65.63
2018-11-23T07:47:44.283Z,69.03
2018-11-23T07:50:22.598Z,70.43
2018-11-23T07:53:00.682Z,67.10
2018-11-23T07:55:40.095Z,67.50
2018-11-23T07:58:21.189Z,72.47
2018-11-23T08:00:59.369Z,72.13
2018-11-23T08:03:36.474Z,77.63
2018-11-23T08:06:12.828Z,67.17
2018-11-23T08:08:50.756Z,67.30
2018-11-23T08:11:24.777Z,75.27
2018-11-23T08:14:03.109Z,62.03
2018-11-23T08:16:42.485Z,66.10
2018-11-23T08:19:18.566Z,72.97
2018-11-23T08:21:57.329Z,63.93
2018-11-23T08:24:35.649Z,60.77
2018-11-23T08:27:12.644Z,60.47
2018-11-23T08:29:52.750Z,59.37
2018-11-23T08:32:29.289Z,70.13
2018-11-23T08:35:07.701Z,73.27
2018-11-23T08:37:45.282Z,63.30
2018-11-23T08:40:25.586Z,62.57
2018-11-23T08:43:03.707Z,66.73
2018-11-23T08:45:42.446Z,60.77
2018-11-23T08:48:19.312Z,64.40
2018-11-23T08:50:54.993Z,66.30
2018-11-23T08:53:39.797Z,71.07
2018-11-23T08:56:16.729Z,71.10
2018-11-23T08:58:59.456Z,73.23
2018-11-23T09:01:35.867Z,65.20
2018-11-23T09:04:16.871Z,62.97
2018-11-23T09:06:54.329Z,66.87
2018-11-23T09:09:33.952Z,76.37
2018-11-23T09:12:03.894Z,67.43
2018-11-23T09:14:35.963Z,65.27
2018-11-23T09:17:06.317Z,63.60
2018-11-23T09:19:36.450Z,61.47
2018-11-23T09:22:08.153Z,59.80
2018-11-23T09:24:38.520Z,57.23
2018-11-23T09:27:08.034Z,59.90
2018-11-23T09:29:37.880Z,60.67
2018-11-23T09:32:08.140Z,51.63
2018-11-23T09:34:38.041Z,48.93
2018-11-23T09:37:07.759Z,59.70
2018-11-23T09:39:37.084Z,54.27
2018-11-23T09:42:06.915Z,53.50
2018-11-23T09:44:36.178Z,53.40
2018-11-23T09:47:10.198Z,53.23
2018-11-23T09:49:37.847Z,50.57
2018-11-23T09:52:07.338Z,49.90
2018-11-23T09:54:37.086Z,56.53
2018-11-23T09:57:07.537Z,51.60
2018-11-23T09:59:37.587Z,56.90
2018-11-23T10:02:07.364Z,53.90
2018-11-23T10:04:41.012Z,49.93
2018-11-23T10:07:10.625Z,49.13
2018-11-23T10:09:40.282Z,50.33
2018-11-23T10:12:11.163Z,47.37
2018-11-23T10:14:41.179Z,46.83
2018-11-23T10:17:11.218Z,49.10
2018-11-23T10:19:41.615Z,49.97
2018-11-23T10:22:12.426Z,43.53
2018-11-23T10:24:43.098Z,47.97
2018-11-23T10:27:13.714Z,46.50
2018-11-23T10:29:44.351Z,44.00
2018-11-23T10:32:14.042Z,51.03
2018-11-23T10:34:43.697Z,46.90
2018-11-23T10:37:13.261Z,42.73
2018-11-23T10:39:43.014Z,46.47
2018-11-23T10:42:13.537Z,43.97
2018-11-23T10:44:43.154Z,43.93
2018-11-23T10:47:12.524Z,41.27
2018-11-23T10:49:41.952Z,45.27
2018-11-23T10:52:11.668Z,42.33
2018-11-23T10:54:41.172Z,40.53
2018-11-23T10:57:10.585Z,42.10
2018-11-23T10:59:40.073Z,40.97
2018-11-23T11:02:16.584Z,35.57
2018-11-23T11:04:53.788Z,38.80
2018-11-23T11:07:23.317Z,38.77
2018-11-23T11:09:54.626Z,35.00
2018-11-23T11:12:25.787Z,29.80
2018-11-23T11:14:55.279Z,37.70
2018-11-23T11:17:25.060Z,35.33
2018-11-23T11:20:03.723Z,34.23
2018-11-23T11:22:35.211Z,31.20
2018-11-23T11:25:07.101Z,38.20
2018-11-23T11:27:37.531Z,36.87
2018-11-23T11:30:10.951Z,32.57
2018-11-23T11:32:41.423Z,33.23
2018-11-23T11:35:11.983Z,34.93
2018-11-23T11:37:42.020Z,36.60
2018-11-23T11:40:13.117Z,36.47
2018-11-23T11:42:43.454Z,38.67
2018-11-23T11:45:14.961Z,33.90
2018-11-23T11:47:45.318Z,37.40
2018-11-23T11:50:15.419Z,36.10
2018-11-23T11:52:46.289Z,34.57
2018-11-23T11:55:17.079Z,38.20
2018-11-23T11:57:47.856Z,33.07
2018-11-23T12:00:19.158Z,34.03
2018-11-23T12:02:49.069Z,34.33
2018-11-23T12:05:18.670Z,37.83
2018-11-23T12:07:49.077Z,36.20
2018-11-23T12:10:21.551Z,38.37
2018-11-23T12:12:51.604Z,37.83
2018-11-23T12:15:21.070Z,39.63
2018-11-23T12:17:51.595Z,41.03
2018-11-23T12:20:23.052Z,42.00
2018-11-23T12:22:53.049Z,39.50
2018-11-23T12:25:23.139Z,43.40
2018-11-23T12:27:53.174Z,40.07
2018-11-23T12:30:23.063Z,39.00
2018-11-23T12:32:53.974Z,36.30
2018-11-23T12:35:24.392Z,36.60
2018-11-23T12:37:54.113Z,35.90
2018-11-23T12:40:23.498Z,37.43
2018-11-23T12:42:59.509Z,42.47
2018-11-23T12:45:29.038Z,40.20
2018-11-23T12:47:59.168Z,40.00
2018-11-23T12:50:28.676Z,39.03
2018-11-23T12:53:06.179Z,38.00
2018-11-23T12:55:37.281Z,40.87
2018-11-23T12:58:07.952Z,38.97
2018-11-23T13:00:57.557Z,40.17
2018-11-23T13:03:44.575Z,38.70
2018-11-23T13:06:16.431Z,39.57
2018-11-23T13:08:45.898Z,37.13
2018-11-23T13:11:15.942Z,39.10
2018-11-23T13:13:45.330Z,39.03
2018-11-23T13:16:15.377Z,37.07
2018-11-23T13:18:46.401Z,36.17
2018-11-23T13:21:18.251Z,39.93
2018-11-23T13:23:50.034Z,37.10
2018-11-23T13:26:32.165Z,37.93
2018-11-23T13:29:15.984Z,36.23
2018-11-23T13:31:40.958Z,37.53
2018-11-23T13:34:20.401Z,38.53
2018-11-23T13:37:09.597Z,34.90
2018-11-23T13:39:40.224Z,39.63
2018-11-23T13:42:17.648Z,38.37
2018-11-23T13:44:59.106Z,34.33
2018-11-23T13:48:00.538Z,38.77
2018-11-23T13:50:51.925Z,41.93
2018-11-23T13:53:33.365Z,42.00
2018-11-23T13:56:58.312Z,36.27
2018-11-23T13:59:39.995Z,37.97
2018-11-23T14:02:10.442Z,41.40
2018-11-23T14:04:41.083Z,38.30
2018-11-23T14:07:11.347Z,38.23
2018-11-23T14:09:46.257Z,42.07
2018-11-23T14:12:20.253Z,39.77
2018-11-23T14:14:53.483Z,41.57
2018-11-23T14:17:30.041Z,44.60
2018-11-23T14:20:01.078Z,42.83
2018-11-23T14:22:39.071Z,39.70
2018-11-23T14:25:13.826Z,42.50
2018-11-23T14:27:45.948Z,43.63
2018-11-23T14:30:21.430Z,43.30
2018-11-23T14:32:52.548Z,46.20
2018-11-23T14:35:25.071Z,45.63
2018-11-23T14:37:55.788Z,44.87
2018-11-23T14:40:25.435Z,39.83
2018-11-23T14:42:55.604Z,44.47
2018-11-23T14:45:32.143Z,44.70
2018-11-23T14:48:08.190Z,44.47
2018-11-23T14:50:42.690Z,48.57
2018-11-23T14:53:12.169Z,50.57
2018-11-23T14:55:41.572Z,48.27
2018-11-23T14:58:10.952Z,44.77
2018-11-23T15:00:40.612Z,47.93
2018-11-23T15:03:10.039Z,45.00
2018-11-23T15:05:39.750Z,48.30
2018-11-23T15:08:09.480Z,49.20
2018-11-23T15:10:39.028Z,48.00
2018-11-23T15:13:12.825Z,42.90
2018-11-23T15:15:45.766Z,45.70
2018-11-23T15:18:18.316Z,45.67
2018-11-23T15:20:48.169Z,45.93
2018-11-23T15:23:19.101Z,46.03
2018-11-23T15:25:50.875Z,50.00
2018-11-23T15:28:20.538Z,47.77
2018-11-23T15:30:50.065Z,47.50
2018-11-23T15:33:30.647Z,46.70
2018-11-23T15:36:00.129Z,44.83
2018-11-23T15:38:29.717Z,43.83
2018-11-23T15:40:59.187Z,48.27
2018-11-23T15:43:28.654Z,44.50
2018-11-23T15:45:58.069Z,45.07
2018-11-23T15:48:28.120Z,48.23
2018-11-23T15:51:01.651Z,45.43
2018-11-23T15:53:31.245Z,47.10
2018-11-23T15:56:00.724Z,45.77
2018-11-23T15:58:30.510Z,48.33
2018-11-23T16:00:59.904Z,45.43
2018-11-23T16:03:30.507Z,44.77
2018-11-23T16:05:59.955Z,48.77
2018-11-23T16:08:30.368Z,45.17
2018-11-23T16:11:00.879Z,42.30
2018-11-23T16:13:30.651Z,48.13
2018-11-23T16:16:00.126Z,45.70
2018-11-23T16:18:29.973Z,44.83
2018-11-23T16:21:00.373Z,47.10
2018-11-23T16:23:29.882Z,45.03
2018-11-23T16:25:59.465Z,44.73
2018-11-23T16:28:30.071Z,49.00
2018-11-23T16:31:01.040Z,42.33
2018-11-23T16:33:30.807Z,41.67
2018-11-23T16:36:00.590Z,42.57
2018-11-23T16:38:30.282Z,43.47
2018-11-23T16:40:59.737Z,40.40
2018-11-23T16:43:30.067Z,40.17
2018-11-23T16:45:59.617Z,41.73
2018-11-23T16:48:28.881Z,43.43
2018-11-23T16:50:58.680Z,41.93
2018-11-23T16:53:28.669Z,38.17
2018-11-23T16:55:58.682Z,41.77
2018-11-23T16:58:28.423Z,42.20
2018-11-23T17:00:58.568Z,42.50
2018-11-23T17:03:27.986Z,43.37
2018-11-23T17:05:57.818Z,41.93
2018-11-23T17:08:27.432Z,47.03
2018-11-23T17:10:56.641Z,45.37
2018-11-23T17:13:26.660Z,47.80
2018-11-23T17:16:00.039Z,55.47
2018-11-23T17:18:29.701Z,62.73
2018-11-23T17:20:59.323Z,45.50
2018-11-23T17:23:28.957Z,48.40
2018-11-23T17:25:58.401Z,42.70
2018-11-23T17:28:29.492Z,44.50
2018-11-23T17:30:59.187Z,38.77
2018-11-23T17:33:28.505Z,42.30
2018-11-23T17:35:58.080Z,44.77
2018-11-23T17:38:27.664Z,43.60
2018-11-23T17:40:57.168Z,40.00
2018-11-23T17:43:26.401Z,39.97
2018-11-23T17:45:56.397Z,38.13
2018-11-23T17:51:12.256Z,38.27
2018-11-23T17:53:41.573Z,35.37
2018-11-23T17:56:10.852Z,34.33
2018-11-23T17:59:04.899Z,31.77
2018-11-23T18:01:34.482Z,36.20
2018-11-23T18:04:21.396Z,34.50
2018-11-23T18:06:52.780Z,33.70
2018-11-23T18:09:30.862Z,33.30
2018-11-23T18:15:13.158Z,32.73
2018-11-23T18:17:43.351Z,30.47
2018-11-23T18:20:15.002Z,33.17
2018-11-23T18:22:45.979Z,32.43
2018-11-23T18:25:23.848Z,30.87
2018-11-23T18:27:59.873Z,29.67
2018-11-23T18:30:32.911Z,28.17
2018-11-23T18:33:05.532Z,28.63
2018-11-23T18:35:37.303Z,27.90
2018-11-23T18:38:06.938Z,29.13
2018-11-23T18:40:37.553Z,28.33
2018-11-23T18:43:06.440Z,30.87
2018-11-23T18:45:35.798Z,29.37
2018-11-23T18:48:05.108Z,27.70
2018-11-23T18:50:34.587Z,29.77
2018-11-23T18:53:03.898Z,29.93
2018-11-23T18:55:33.155Z,29.83
2018-11-23T18:58:02.536Z,30.17
2018-11-23T19:00:31.839Z,27.77
2018-11-23T19:03:01.228Z,28.87
2018-11-23T19:05:30.601Z,35.77
2018-11-23T19:08:00.102Z,29.30
2018-11-23T19:10:29.397Z,30.20
2018-11-23T19:12:58.746Z,31.37
2018-11-23T19:15:28.262Z,30.47
2018-11-23T19:17:57.487Z,28.03
2018-11-23T19:20:27.346Z,30.20
2018-11-23T19:22:56.587Z,32.07
2018-11-23T19:25:29.934Z,29.83
2018-11-23T19:27:59.197Z,31.33
2018-11-23T19:30:29.046Z,26.23
2018-11-23T19:32:57.606Z,31.60
2018-11-23T19:35:26.816Z,27.90
2018-11-23T19:37:56.134Z,31.40
2018-11-23T19:40:25.436Z,30.30
2018-11-23T19:42:54.884Z,28.30
2018-11-23T19:45:24.121Z,26.70
2018-11-23T19:47:53.563Z,25.87
2018-11-23T19:50:50.025Z,25.70
2018-11-23T19:53:23.214Z,29.33
2018-11-23T19:55:52.367Z,28.63
2018-11-23T19:58:22.071Z,30.93
2018-11-23T20:00:51.664Z,29.33
2018-11-23T20:03:20.910Z,26.30
2018-11-23T20:05:50.098Z,32.47
2018-11-23T20:08:19.254Z,30.00
2018-11-23T20:10:48.475Z,30.10
2018-11-23T20:13:17.721Z,27.57
2018-11-23T20:15:46.971Z,26.07
2018-11-23T20:18:16.110Z,26.07
2018-11-23T20:20:45.263Z,31.00
2018-11-23T20:23:14.733Z,27.60
2018-11-23T20:25:44.347Z,26.93
2018-11-23T20:28:13.564Z,24.20
2018-11-23T20:30:42.827Z,24.80
2018-11-23T20:33:11.989Z,27.87
2018-11-23T20:35:41.259Z,26.30
2018-11-23T20:38:10.449Z,30.30
2018-11-23T20:40:39.726Z,25.93
2018-11-23T20:43:08.995Z,27.03
2018-11-23T20:45:38.905Z,27.00
2018-11-23T20:48:08.049Z,26.10
2018-11-23T20:50:37.241Z,23.97
2018-11-23T20:53:06.849Z,22.87
2018-11-23T20:55:36.119Z,24.90
2018-11-23T20:58:05.300Z,23.90
2018-11-23T21:00:34.562Z,23.43
2018-11-23T21:03:03.854Z,26.50
2018-11-23T21:05:33.043Z,21.30
2018-11-23T21:08:02.262Z,23.63
2018-11-23T21:10:31.444Z,23.73
2018-11-23T21:13:00.696Z,25.40
2018-11-23T21:15:31.037Z,24.80
2018-11-23T21:18:02.640Z,21.50
2018-11-23T21:20:32.168Z,22.17
2018-11-23T21:23:01.488Z,21.93
2018-11-23T21:25:30.634Z,23.33
2018-11-23T21:28:00.313Z,22.07
2018-11-23T21:30:29.472Z,23.73
2018-11-23T21:32:59.704Z,23.60
2018-11-23T21:35:29.070Z,25.73
2018-11-23T21:37:58.230Z,25.10
2018-11-23T21:40:27.677Z,25.27
2018-11-23T21:42:56.920Z,26.57
2018-11-23T21:45:26.226Z,28.43
2018-11-23T21:47:55.618Z,25.57
2018-11-23T21:50:25.888Z,25.93
2018-11-23T21:52:54.542Z,27.33
2018-11-23T21:55:25.377Z,29.00
2018-11-23T21:57:55.853Z,28.67
2018-11-23T22:00:25.211Z,25.83
2018-11-23T22:02:54.501Z,29.43
2018-11-23T22:05:24.204Z,28.27
2018-11-23T22:07:53.997Z,26.70
2018-11-23T22:10:23.239Z,28.40
2018-11-23T22:12:52.569Z,32.47
2018-11-23T22:15:24.148Z,30.20
2018-11-23T22:17:55.424Z,29.20
2018-11-23T22:20:25.133Z,28.10
2018-11-23T22:22:54.361Z,28.30
2018-11-23T22:25:24.205Z,29.90
2018-11-23T22:27:53.433Z,32.20
2018-11-23T22:30:27.772Z,30.23
2018-11-23T22:32:57.285Z,31.73
2018-11-23T22:35:29.136Z,29.93
2018-11-23T22:37:59.020Z,31.70
2018-11-23T22:40:46.237Z,26.13
2018-11-23T22:43:34.806Z,29.77
2018-11-23T22:46:04.099Z,28.67
2018-11-23T22:48:33.357Z,30.90
2018-11-23T22:51:02.556Z,28.53
2018-11-23T22:53:31.789Z,29.73
2018-11-23T22:56:02.083Z,28.33
2018-11-23T22:58:31.331Z,31.80
2018-11-23T23:01:02.815Z,27.07
2018-11-23T23:03:32.299Z,28.57
2018-11-23T23:06:01.479Z,26.07
2018-11-23T23:08:30.999Z,28.23
2018-11-23T23:11:00.321Z,27.77
2018-11-23T23:13:29.626Z,29.60
2018-11-23T23:15:58.857Z,25.00
2018-11-23T23:18:28.126Z,27.80
2018-11-23T23:20:57.441Z,25.80
2018-11-23T23:23:26.652Z,26.50
2018-11-23T23:25:56.112Z,26.13
2018-11-23T23:28:25.456Z,27.17
2018-11-23T23:30:54.755Z,28.27
2018-11-23T23:33:24.432Z,26.53
2018-11-23T23:35:53.542Z,25.53
2018-11-23T23:38:31.962Z,28.90
2018-11-23T23:41:01.266Z,27.50
2018-11-23T23:43:30.493Z,24.03
2018-11-23T23:46:00.244Z,27.17
2018-11-23T23:48:29.437Z,28.33
2018-11-23T23:51:03.134Z,25.40
2018-11-23T23:53:32.627Z,25.20
2018-11-23T23:56:01.812Z,29.00
2018-11-23T23:58:31.097Z,24.10
